Aérodrome :
LOGIN :

S'inscrire | Disclaimer

   EN    FR    IT 

 










Légende :    VFR   VFR Marginal   IFR   IFR Intensif   IFR Très Intensif
Visi : 
Plafond : 
>= 8 km
>= 3000ft
5 à 8 km
1000 à 3000 ft
1500m à 5 km
500 à 1000 ft
800 à 1500m
200 à 500 ft
< 800m
< 200 ft
Symboles :   Orages  Brouillard  Fortes neiges  Fortes précipitations  Vent > 20 kt
SIGMETs :   Divers  Orages  Givrage  Turbulence  Onde Orograph.  Cendres Volcan.







- Altitude de l'aérodrome : 856 ft
- Code IATA : VGO


LEVX - Vigo Peinador

DERNIER METAR :
  • 260030Z 30004KT 280V340 CAVOK 20/17 Q1014 NOSIG

METARs EXPIRÉS :
  • 260000Z VRB01KT CAVOK 19/17 Q1014 NOSIG
  • 252330Z 01007KT 330V060 9999 FEW030CB 20/17 Q1014 NOSIG
  • 252300Z VRB02KT CAVOK 21/17 Q1015 NOSIG
  • 252230Z 27011KT 240V310 CAVOK 22/17 Q1014 NOSIG
  • 252200Z 21008KT 170V240 CAVOK 23/16 Q1014 NOSIG
  • 252130Z VRB02KT CAVOK 23/19 Q1014 NOSIG

TAF TAF LEVX
Valide du 26 à 00h jusqu'au 27 à 00h UTC


252300Z 2600/2624 VRB03KT CAVOK TX26/2614Z TN17/2606Z
PROB40
TEMPO 2612/2618 3000 SHRA TS SCT030TCU SCT040CB
TEMPO 2612/2618 27010KT
Pas de NOTAMs connus pour ce terrain.



MET'MAP, la Météo Aéronautique d'un coup d'oeil ! - Copyright ORBIFLY Décembre 2007 - Disclaimer

ORBIFLY MET'MAP TEAM :

Programmation & Développement : Alexandra Zaïnal
Conception & Développement : Baudouin d'Aumeries
Co-Programmation & Développement : Marc-Olivier Méhu
Soutien technique & logistique : Manuel Goepfert

Contact : metmap@orbifly.com




SOURCES & CREDITS :

   NOAA